sensor_id;sensor_type;location;lat;lon;timestamp;P1;durP1;ratioP1;P2;durP2;ratioP2
4672;SDS011;61885;53.560;9.940;2022-09-13T00:02:15;2.33;;;2.13;;
4672;SDS011;61885;53.560;9.940;2022-09-13T00:04:45;2.10;;;1.90;;
4672;SDS011;61885;53.560;9.940;2022-09-13T00:07:14;2.23;;;2.03;;
4672;SDS011;61885;53.560;9.940;2022-09-13T00:09:44;2.40;;;2.07;;
4672;SDS011;61885;53.560;9.940;2022-09-13T00:12:13;2.07;;;1.97;;
4672;SDS011;61885;53.560;9.940;2022-09-13T00:14:43;1.90;;;1.80;;
4672;SDS011;61885;53.560;9.940;2022-09-13T00:17:15;2.83;;;2.30;;
4672;SDS011;61885;53.560;9.940;2022-09-13T00:19:45;2.10;;;2.00;;
4672;SDS011;61885;53.560;9.940;2022-09-13T00:22:15;2.57;;;2.37;;
4672;SDS011;61885;53.560;9.940;2022-09-13T00:24:44;2.67;;;2.20;;
4672;SDS011;61885;53.560;9.940;2022-09-13T00:27:14;2.50;;;2.30;;
4672;SDS011;61885;53.560;9.940;2022-09-13T00:29:43;2.53;;;2.30;;
4672;SDS011;61885;53.560;9.940;2022-09-13T00:32:16;2.13;;;2.03;;
4672;SDS011;61885;53.560;9.940;2022-09-13T00:34:46;3.93;;;2.80;;
4672;SDS011;61885;53.560;9.940;2022-09-13T00:37:15;2.80;;;2.60;;
4672;SDS011;61885;53.560;9.940;2022-09-13T00:39:45;3.17;;;2.87;;
4672;SDS011;61885;53.560;9.940;2022-09-13T00:42:14;3.07;;;2.77;;
4672;SDS011;61885;53.560;9.940;2022-09-13T00:44:54;3.37;;;3.07;;
4672;SDS011;61885;53.560;9.940;2022-09-13T00:47:32;5.10;;;3.00;;
4672;SDS011;61885;53.560;9.940;2022-09-13T00:50:06;4.70;;;2.50;;
4672;SDS011;61885;53.560;9.940;2022-09-13T00:52:42;2.70;;;2.50;;
4672;SDS011;61885;53.560;9.940;2022-09-13T00:55:15;3.23;;;2.93;;
4672;SDS011;61885;53.560;9.940;2022-09-13T00:57:48;3.20;;;2.90;;
4672;SDS011;61885;53.560;9.940;2022-09-13T01:00:19;4.83;;;3.20;;
4672;SDS011;61885;53.560;9.940;2022-09-13T01:02:52;3.63;;;2.80;;
4672;SDS011;61885;53.560;9.940;2022-09-13T01:05:25;4.10;;;2.70;;
4672;SDS011;61885;53.560;9.940;2022-09-13T01:07:58;5.03;;;3.40;;
4672;SDS011;61885;53.560;9.940;2022-09-13T01:10:35;4.83;;;3.70;;
4672;SDS011;61885;53.560;9.940;2022-09-13T01:13:05;4.07;;;3.67;;
4672;SDS011;61885;53.560;9.940;2022-09-13T01:15:40;3.80;;;3.40;;
4672;SDS011;61885;53.560;9.940;2022-09-13T01:18:12;5.63;;;3.80;;
4672;SDS011;61885;53.560;9.940;2022-09-13T01:23:54;3.70;;;3.37;;
4672;SDS011;61885;53.560;9.940;2022-09-13T01:30:05;8.00;;;4.10;;
4672;SDS011;61885;53.560;9.940;2022-09-13T01:32:43;6.53;;;4.00;;
4672;SDS011;61885;53.560;9.940;2022-09-13T01:35:33;4.97;;;4.03;;
4672;SDS011;61885;53.560;9.940;2022-09-13T01:38:13;6.60;;;4.33;;
4672;SDS011;61885;53.560;9.940;2022-09-13T01:40:55;4.37;;;3.60;;
4672;SDS011;61885;53.560;9.940;2022-09-13T01:43:38;4.73;;;4.10;;
4672;SDS011;61885;53.560;9.940;2022-09-13T01:46:21;5.33;;;4.10;;
4672;SDS011;61885;53.560;9.940;2022-09-13T01:48:59;5.20;;;4.10;;
4672;SDS011;61885;53.560;9.940;2022-09-13T01:51:37;4.90;;;4.20;;
4672;SDS011;61885;53.560;9.940;2022-09-13T01:54:14;6.03;;;4.80;;
4672;SDS011;61885;53.560;9.940;2022-09-13T01:56:50;5.83;;;3.90;;
4672;SDS011;61885;53.560;9.940;2022-09-13T01:59:28;3.47;;;3.17;;
4672;SDS011;61885;53.560;9.940;2022-09-13T02:02:09;4.90;;;4.40;;
4672;SDS011;61885;53.560;9.940;2022-09-13T02:04:42;5.10;;;3.97;;
4672;SDS011;61885;53.560;9.940;2022-09-13T02:07:16;4.53;;;3.33;;
4672;SDS011;61885;53.560;9.940;2022-09-13T02:09:51;6.30;;;3.47;;
4672;SDS011;61885;53.560;9.940;2022-09-13T02:12:30;5.37;;;4.30;;
4672;SDS011;61885;53.560;9.940;2022-09-13T02:15:07;3.83;;;3.50;;
4672;SDS011;61885;53.560;9.940;2022-09-13T02:17:43;4.57;;;3.77;;
4672;SDS011;61885;53.560;9.940;2022-09-13T02:20:19;5.47;;;4.17;;
4672;SDS011;61885;53.560;9.940;2022-09-13T02:22:53;7.20;;;4.57;;
4672;SDS011;61885;53.560;9.940;2022-09-13T02:25:25;5.60;;;4.30;;
4672;SDS011;61885;53.560;9.940;2022-09-13T02:27:59;6.60;;;4.20;;
4672;SDS011;61885;53.560;9.940;2022-09-13T02:30:33;5.40;;;4.23;;
4672;SDS011;61885;53.560;9.940;2022-09-13T02:33:11;6.40;;;4.50;;
4672;SDS011;61885;53.560;9.940;2022-09-13T02:35:45;6.40;;;4.03;;
4672;SDS011;61885;53.560;9.940;2022-09-13T02:38:20;6.23;;;3.90;;
4672;SDS011;61885;53.560;9.940;2022-09-13T02:40:56;4.27;;;3.70;;
4672;SDS011;61885;53.560;9.940;2022-09-13T02:43:30;5.50;;;4.13;;
4672;SDS011;61885;53.560;9.940;2022-09-13T02:46:11;5.57;;;4.30;;
4672;SDS011;61885;53.560;9.940;2022-09-13T02:48:54;4.27;;;3.80;;
4672;SDS011;61885;53.560;9.940;2022-09-13T02:51:30;5.30;;;4.60;;
4672;SDS011;61885;53.560;9.940;2022-09-13T02:54:08;4.00;;;3.60;;
4672;SDS011;61885;53.560;9.940;2022-09-13T02:56:52;5.60;;;4.43;;
4672;SDS011;61885;53.560;9.940;2022-09-13T02:59:27;5.93;;;3.70;;
4672;SDS011;61885;53.560;9.940;2022-09-13T03:01:58;5.70;;;3.83;;
4672;SDS011;61885;53.560;9.940;2022-09-13T03:04:34;6.73;;;3.97;;
4672;SDS011;61885;53.560;9.940;2022-09-13T03:07:05;10.30;;;4.43;;
4672;SDS011;61885;53.560;9.940;2022-09-13T03:09:38;5.87;;;4.40;;
4672;SDS011;61885;53.560;9.940;2022-09-13T03:12:19;6.67;;;4.87;;
4672;SDS011;61885;53.560;9.940;2022-09-13T03:15:02;6.93;;;4.63;;
4672;SDS011;61885;53.560;9.940;2022-09-13T03:17:43;6.50;;;4.60;;
4672;SDS011;61885;53.560;9.940;2022-09-13T03:20:33;7.93;;;5.30;;
4672;SDS011;61885;53.560;9.940;2022-09-13T03:23:11;6.63;;;4.90;;
4672;SDS011;61885;53.560;9.940;2022-09-13T03:28:58;7.03;;;5.33;;
4672;SDS011;61885;53.560;9.940;2022-09-13T03:31:40;8.00;;;5.40;;
4672;SDS011;61885;53.560;9.940;2022-09-13T03:34:19;6.83;;;5.23;;
4672;SDS011;61885;53.560;9.940;2022-09-13T03:37:00;9.43;;;5.67;;
4672;SDS011;61885;53.560;9.940;2022-09-13T03:39:36;8.57;;;5.60;;
4672;SDS011;61885;53.560;9.940;2022-09-13T03:42:11;10.93;;;6.13;;
4672;SDS011;61885;53.560;9.940;2022-09-13T03:44:46;10.40;;;6.80;;
4672;SDS011;61885;53.560;9.940;2022-09-13T03:47:18;8.43;;;6.03;;
4672;SDS011;61885;53.560;9.940;2022-09-13T03:49:50;9.53;;;6.50;;
4672;SDS011;61885;53.560;9.940;2022-09-13T03:52:25;10.27;;;6.90;;
4672;SDS011;61885;53.560;9.940;2022-09-13T03:54:56;10.77;;;7.50;;
4672;SDS011;61885;53.560;9.940;2022-09-13T03:57:29;9.93;;;6.67;;
4672;SDS011;61885;53.560;9.940;2022-09-13T03:59:59;15.70;;;8.87;;
4672;SDS011;61885;53.560;9.940;2022-09-13T04:02:29;11.33;;;7.37;;
4672;SDS011;61885;53.560;9.940;2022-09-13T04:04:58;15.10;;;7.80;;
4672;SDS011;61885;53.560;9.940;2022-09-13T04:07:30;12.47;;;7.87;;
4672;SDS011;61885;53.560;9.940;2022-09-13T04:10:01;14.70;;;8.20;;
4672;SDS011;61885;53.560;9.940;2022-09-13T04:12:31;14.70;;;7.40;;
4672;SDS011;61885;53.560;9.940;2022-09-13T04:15:00;17.90;;;8.53;;
4672;SDS011;61885;53.560;9.940;2022-09-13T04:17:30;12.43;;;7.70;;
4672;SDS011;61885;53.560;9.940;2022-09-13T04:20:00;14.63;;;7.70;;
4672;SDS011;61885;53.560;9.940;2022-09-13T04:22:33;10.40;;;7.00;;
4672;SDS011;61885;53.560;9.940;2022-09-13T04:25:04;10.87;;;7.23;;
4672;SDS011;61885;53.560;9.940;2022-09-13T04:27:34;13.30;;;8.00;;
4672;SDS011;61885;53.560;9.940;2022-09-13T04:30:04;12.93;;;8.20;;
4672;SDS011;61885;53.560;9.940;2022-09-13T04:32:36;12.93;;;7.77;;
4672;SDS011;61885;53.560;9.940;2022-09-13T04:35:06;17.37;;;8.90;;
4672;SDS011;61885;53.560;9.940;2022-09-13T04:37:39;12.93;;;8.23;;
4672;SDS011;61885;53.560;9.940;2022-09-13T04:40:09;13.37;;;8.23;;
4672;SDS011;61885;53.560;9.940;2022-09-13T04:42:39;20.80;;;10.03;;
4672;SDS011;61885;53.560;9.940;2022-09-13T04:45:09;15.80;;;8.83;;
4672;SDS011;61885;53.560;9.940;2022-09-13T04:47:39;21.63;;;8.70;;
4672;SDS011;61885;53.560;9.940;2022-09-13T04:50:09;17.23;;;8.13;;
4672;SDS011;61885;53.560;9.940;2022-09-13T04:52:41;21.60;;;8.77;;
4672;SDS011;61885;53.560;9.940;2022-09-13T04:55:11;18.30;;;9.43;;
4672;SDS011;61885;53.560;9.940;2022-09-13T04:57:41;16.97;;;9.00;;
4672;SDS011;61885;53.560;9.940;2022-09-13T05:00:11;18.00;;;9.53;;
4672;SDS011;61885;53.560;9.940;2022-09-13T05:02:41;18.30;;;9.80;;
4672;SDS011;61885;53.560;9.940;2022-09-13T05:05:10;18.77;;;10.03;;
4672;SDS011;61885;53.560;9.940;2022-09-13T05:07:42;16.00;;;9.07;;
4672;SDS011;61885;53.560;9.940;2022-09-13T05:10:13;20.50;;;10.40;;
4672;SDS011;61885;53.560;9.940;2022-09-13T05:12:43;20.77;;;10.20;;
4672;SDS011;61885;53.560;9.940;2022-09-13T05:15:12;21.07;;;10.47;;
4672;SDS011;61885;53.560;9.940;2022-09-13T05:17:42;21.20;;;11.47;;
4672;SDS011;61885;53.560;9.940;2022-09-13T05:20:11;22.20;;;11.30;;
4672;SDS011;61885;53.560;9.940;2022-09-13T05:22:44;22.17;;;11.17;;
4672;SDS011;61885;53.560;9.940;2022-09-13T05:25:13;27.20;;;12.73;;
4672;SDS011;61885;53.560;9.940;2022-09-13T05:27:44;23.47;;;11.40;;
4672;SDS011;61885;53.560;9.940;2022-09-13T05:30:17;25.43;;;11.53;;
4672;SDS011;61885;53.560;9.940;2022-09-13T05:32:46;22.77;;;12.03;;
4672;SDS011;61885;53.560;9.940;2022-09-13T05:35:16;23.70;;;12.13;;
4672;SDS011;61885;53.560;9.940;2022-09-13T05:37:48;34.93;;;13.67;;
4672;SDS011;61885;53.560;9.940;2022-09-13T05:40:17;23.70;;;12.20;;
4672;SDS011;61885;53.560;9.940;2022-09-13T05:42:47;23.57;;;11.90;;
4672;SDS011;61885;53.560;9.940;2022-09-13T05:45:16;23.20;;;11.20;;
4672;SDS011;61885;53.560;9.940;2022-09-13T05:47:48;22.80;;;12.13;;
4672;SDS011;61885;53.560;9.940;2022-09-13T05:50:18;25.70;;;12.47;;
4672;SDS011;61885;53.560;9.940;2022-09-13T05:52:54;23.50;;;11.80;;
4672;SDS011;61885;53.560;9.940;2022-09-13T05:55:24;21.27;;;12.03;;
4672;SDS011;61885;53.560;9.940;2022-09-13T05:57:54;27.20;;;12.60;;
4672;SDS011;61885;53.560;9.940;2022-09-13T06:00:24;26.00;;;13.67;;
4672;SDS011;61885;53.560;9.940;2022-09-13T06:02:54;26.73;;;13.00;;
4672;SDS011;61885;53.560;9.940;2022-09-13T06:05:24;23.03;;;12.23;;
4672;SDS011;61885;53.560;9.940;2022-09-13T06:07:56;20.63;;;12.30;;
4672;SDS011;61885;53.560;9.940;2022-09-13T06:10:26;26.10;;;12.57;;
4672;SDS011;61885;53.560;9.940;2022-09-13T06:12:55;31.73;;;12.67;;
4672;SDS011;61885;53.560;9.940;2022-09-13T06:15:25;26.07;;;12.83;;
4672;SDS011;61885;53.560;9.940;2022-09-13T06:17:55;26.60;;;12.50;;
4672;SDS011;61885;53.560;9.940;2022-09-13T06:20:25;33.23;;;13.20;;
4672;SDS011;61885;53.560;9.940;2022-09-13T06:22:57;22.50;;;11.37;;
4672;SDS011;61885;53.560;9.940;2022-09-13T06:25:26;21.17;;;11.37;;
4672;SDS011;61885;53.560;9.940;2022-09-13T06:27:56;21.43;;;11.53;;
4672;SDS011;61885;53.560;9.940;2022-09-13T06:30:25;24.17;;;11.97;;
4672;SDS011;61885;53.560;9.940;2022-09-13T06:32:55;25.67;;;12.80;;
4672;SDS011;61885;53.560;9.940;2022-09-13T06:35:25;20.50;;;11.70;;
4672;SDS011;61885;53.560;9.940;2022-09-13T06:37:57;23.03;;;10.93;;
4672;SDS011;61885;53.560;9.940;2022-09-13T06:40:26;25.57;;;13.57;;
4672;SDS011;61885;53.560;9.940;2022-09-13T06:42:56;22.97;;;12.17;;
4672;SDS011;61885;53.560;9.940;2022-09-13T06:45:25;22.20;;;12.87;;
4672;SDS011;61885;53.560;9.940;2022-09-13T06:47:55;26.00;;;12.97;;
4672;SDS011;61885;53.560;9.940;2022-09-13T06:50:25;24.57;;;11.83;;
4672;SDS011;61885;53.560;9.940;2022-09-13T06:52:57;36.87;;;12.20;;
4672;SDS011;61885;53.560;9.940;2022-09-13T06:55:27;19.70;;;11.20;;
4672;SDS011;61885;53.560;9.940;2022-09-13T06:57:57;19.10;;;10.80;;
4672;SDS011;61885;53.560;9.940;2022-09-13T07:00:27;21.90;;;10.40;;
4672;SDS011;61885;53.560;9.940;2022-09-13T07:02:58;20.83;;;10.97;;
4672;SDS011;61885;53.560;9.940;2022-09-13T07:05:28;20.43;;;9.40;;
4672;SDS011;61885;53.560;9.940;2022-09-13T07:08:00;20.20;;;10.07;;
4672;SDS011;61885;53.560;9.940;2022-09-13T07:10:30;18.40;;;10.30;;
4672;SDS011;61885;53.560;9.940;2022-09-13T07:12:59;16.77;;;10.00;;
4672;SDS011;61885;53.560;9.940;2022-09-13T07:15:29;14.03;;;8.40;;
4672;SDS011;61885;53.560;9.940;2022-09-13T07:17:58;20.30;;;10.30;;
4672;SDS011;61885;53.560;9.940;2022-09-13T07:20:29;15.47;;;9.27;;
4672;SDS011;61885;53.560;9.940;2022-09-13T07:23:01;17.53;;;9.73;;
4672;SDS011;61885;53.560;9.940;2022-09-13T07:25:30;11.33;;;7.67;;
4672;SDS011;61885;53.560;9.940;2022-09-13T07:28:00;15.80;;;9.60;;
4672;SDS011;61885;53.560;9.940;2022-09-13T07:30:30;15.33;;;8.87;;
4672;SDS011;61885;53.560;9.940;2022-09-13T07:32:59;14.00;;;8.40;;
4672;SDS011;61885;53.560;9.940;2022-09-13T07:35:29;19.47;;;9.20;;
4672;SDS011;61885;53.560;9.940;2022-09-13T07:38:03;16.60;;;9.23;;
4672;SDS011;61885;53.560;9.940;2022-09-13T07:40:32;17.10;;;9.30;;
4672;SDS011;61885;53.560;9.940;2022-09-13T07:43:02;11.27;;;7.93;;
4672;SDS011;61885;53.560;9.940;2022-09-13T07:45:31;13.90;;;7.97;;
4672;SDS011;61885;53.560;9.940;2022-09-13T07:48:02;16.63;;;7.53;;
4672;SDS011;61885;53.560;9.940;2022-09-13T07:50:32;10.60;;;7.17;;
4672;SDS011;61885;53.560;9.940;2022-09-13T07:53:05;10.97;;;6.67;;
4672;SDS011;61885;53.560;9.940;2022-09-13T07:55:35;8.37;;;5.60;;
4672;SDS011;61885;53.560;9.940;2022-09-13T07:58:04;10.77;;;6.70;;
4672;SDS011;61885;53.560;9.940;2022-09-13T08:00:34;7.10;;;5.37;;
4672;SDS011;61885;53.560;9.940;2022-09-13T08:03:06;9.87;;;5.97;;
4672;SDS011;61885;53.560;9.940;2022-09-13T08:05:37;8.00;;;5.73;;
4672;SDS011;61885;53.560;9.940;2022-09-13T08:08:10;12.90;;;5.87;;
4672;SDS011;61885;53.560;9.940;2022-09-13T08:10:39;8.00;;;4.40;;
4672;SDS011;61885;53.560;9.940;2022-09-13T08:13:09;7.70;;;4.90;;
4672;SDS011;61885;53.560;9.940;2022-09-13T08:15:38;9.00;;;3.90;;
4672;SDS011;61885;53.560;9.940;2022-09-13T08:18:08;7.23;;;4.73;;
4672;SDS011;61885;53.560;9.940;2022-09-13T08:20:37;6.83;;;4.30;;
4672;SDS011;61885;53.560;9.940;2022-09-13T08:23:10;59.97;;;30.33;;
4672;SDS011;61885;53.560;9.940;2022-09-13T08:25:40;12.90;;;5.50;;
4672;SDS011;61885;53.560;9.940;2022-09-13T08:28:13;6.43;;;2.50;;
4672;SDS011;61885;53.560;9.940;2022-09-13T08:30:44;3.63;;;2.50;;
4672;SDS011;61885;53.560;9.940;2022-09-13T08:33:13;2.10;;;1.90;;
4672;SDS011;61885;53.560;9.940;2022-09-13T08:35:48;4.37;;;2.30;;
4672;SDS011;61885;53.560;9.940;2022-09-13T08:38:23;5.67;;;1.50;;
4672;SDS011;61885;53.560;9.940;2022-09-13T08:40:54;1.97;;;1.40;;
4672;SDS011;61885;53.560;9.940;2022-09-13T08:43:29;7.40;;;1.27;;
4672;SDS011;61885;53.560;9.940;2022-09-13T08:46:09;4.03;;;1.27;;
4672;SDS011;61885;53.560;9.940;2022-09-13T08:48:46;1.73;;;1.63;;
4672;SDS011;61885;53.560;9.940;2022-09-13T08:51:24;3.83;;;1.07;;
4672;SDS011;61885;53.560;9.940;2022-09-13T08:54:01;4.07;;;1.20;;
4672;SDS011;61885;53.560;9.940;2022-09-13T08:56:35;1.77;;;1.67;;
4672;SDS011;61885;53.560;9.940;2022-09-13T08:59:14;3.00;;;1.20;;
4672;SDS011;61885;53.560;9.940;2022-09-13T09:01:54;4.70;;;1.10;;
4672;SDS011;61885;53.560;9.940;2022-09-13T09:04:33;2.27;;;0.70;;
4672;SDS011;61885;53.560;9.940;2022-09-13T09:07:10;1.97;;;0.97;;
4672;SDS011;61885;53.560;9.940;2022-09-13T09:09:47;3.33;;;0.90;;
4672;SDS011;61885;53.560;9.940;2022-09-13T09:12:22;0.90;;;0.60;;
4672;SDS011;61885;53.560;9.940;2022-09-13T09:15:00;2.20;;;0.70;;
4672;SDS011;61885;53.560;9.940;2022-09-13T09:17:37;2.17;;;0.67;;
4672;SDS011;61885;53.560;9.940;2022-09-13T09:20:26;1.70;;;0.63;;
4672;SDS011;61885;53.560;9.940;2022-09-13T09:23:01;1.33;;;0.77;;
4672;SDS011;61885;53.560;9.940;2022-09-13T09:25:36;2.50;;;0.80;;
4672;SDS011;61885;53.560;9.940;2022-09-13T09:28:08;3.20;;;0.90;;
4672;SDS011;61885;53.560;9.940;2022-09-13T09:30:42;5.23;;;1.20;;
4672;SDS011;61885;53.560;9.940;2022-09-13T09:33:25;2.13;;;0.80;;
4672;SDS011;61885;53.560;9.940;2022-09-13T09:36:08;4.60;;;0.80;;
4672;SDS011;61885;53.560;9.940;2022-09-13T09:38:42;3.20;;;0.73;;
4672;SDS011;61885;53.560;9.940;2022-09-13T09:41:21;1.83;;;1.00;;
4672;SDS011;61885;53.560;9.940;2022-09-13T09:43:55;2.40;;;0.50;;
4672;SDS011;61885;53.560;9.940;2022-09-13T09:46:31;1.40;;;0.50;;
4672;SDS011;61885;53.560;9.940;2022-09-13T09:49:04;2.23;;;0.87;;
4672;SDS011;61885;53.560;9.940;2022-09-13T09:52:01;3.23;;;0.80;;
4672;SDS011;61885;53.560;9.940;2022-09-13T09:54:34;3.53;;;0.80;;
4672;SDS011;61885;53.560;9.940;2022-09-13T09:57:10;2.70;;;0.83;;
4672;SDS011;61885;53.560;9.940;2022-09-13T09:59:41;2.50;;;0.80;;
4672;SDS011;61885;53.560;9.940;2022-09-13T10:02:12;2.90;;;0.80;;
4672;SDS011;61885;53.560;9.940;2022-09-13T10:04:52;3.33;;;0.60;;
4672;SDS011;61885;53.560;9.940;2022-09-13T10:07:25;12.47;;;1.93;;
4672;SDS011;61885;53.560;9.940;2022-09-13T10:09:58;1.03;;;0.50;;
4672;SDS011;61885;53.560;9.940;2022-09-13T10:12:34;2.40;;;0.83;;
4672;SDS011;61885;53.560;9.940;2022-09-13T10:15:10;1.00;;;0.50;;
4672;SDS011;61885;53.560;9.940;2022-09-13T10:17:59;1.93;;;0.90;;
4672;SDS011;61885;53.560;9.940;2022-09-13T10:20:31;5.50;;;0.90;;
4672;SDS011;61885;53.560;9.940;2022-09-13T10:23:11;2.23;;;0.90;;
4672;SDS011;61885;53.560;9.940;2022-09-13T10:25:56;3.87;;;1.20;;
4672;SDS011;61885;53.560;9.940;2022-09-13T10:28:32;2.73;;;1.30;;
4672;SDS011;61885;53.560;9.940;2022-09-13T10:31:05;3.10;;;0.70;;
4672;SDS011;61885;53.560;9.940;2022-09-13T10:33:37;2.00;;;0.70;;
4672;SDS011;61885;53.560;9.940;2022-09-13T10:36:11;2.60;;;0.80;;
4672;SDS011;61885;53.560;9.940;2022-09-13T10:38:50;1.00;;;0.70;;
4672;SDS011;61885;53.560;9.940;2022-09-13T10:41:26;4.97;;;0.80;;
4672;SDS011;61885;53.560;9.940;2022-09-13T10:44:02;1.03;;;0.53;;
4672;SDS011;61885;53.560;9.940;2022-09-13T10:46:34;1.43;;;0.70;;
4672;SDS011;61885;53.560;9.940;2022-09-13T10:49:08;1.77;;;0.97;;
4672;SDS011;61885;53.560;9.940;2022-09-13T10:54:59;1.87;;;0.70;;
4672;SDS011;61885;53.560;9.940;2022-09-13T11:03:58;1.73;;;0.90;;
4672;SDS011;61885;53.560;9.940;2022-09-13T11:06:41;1.00;;;0.60;;
4672;SDS011;61885;53.560;9.940;2022-09-13T11:09:16;10.33;;;0.90;;
4672;SDS011;61885;53.560;9.940;2022-09-13T11:11:51;1.57;;;0.50;;
4672;SDS011;61885;53.560;9.940;2022-09-13T11:14:32;1.43;;;0.60;;
4672;SDS011;61885;53.560;9.940;2022-09-13T11:17:15;1.50;;;0.60;;
4672;SDS011;61885;53.560;9.940;2022-09-13T11:19:55;1.53;;;0.70;;
4672;SDS011;61885;53.560;9.940;2022-09-13T11:22:56;2.47;;;0.80;;
4672;SDS011;61885;53.560;9.940;2022-09-13T11:25:42;1.67;;;0.80;;
4672;SDS011;61885;53.560;9.940;2022-09-13T11:28:25;1.50;;;0.60;;
4672;SDS011;61885;53.560;9.940;2022-09-13T11:31:10;1.10;;;0.60;;
4672;SDS011;61885;53.560;9.940;2022-09-13T11:33:54;5.40;;;1.20;;
4672;SDS011;61885;53.560;9.940;2022-09-13T11:36:42;13.37;;;0.77;;
4672;SDS011;61885;53.560;9.940;2022-09-13T11:39:25;2.50;;;0.83;;
4672;SDS011;61885;53.560;9.940;2022-09-13T11:42:07;1.57;;;0.83;;
4672;SDS011;61885;53.560;9.940;2022-09-13T11:44:55;1.37;;;0.53;;
4672;SDS011;61885;53.560;9.940;2022-09-13T11:47:48;0.90;;;0.53;;
4672;SDS011;61885;53.560;9.940;2022-09-13T11:50:43;1.63;;;1.03;;
4672;SDS011;61885;53.560;9.940;2022-09-13T11:56:20;1.50;;;0.63;;
4672;SDS011;61885;53.560;9.940;2022-09-13T11:58:53;1.00;;;0.70;;
4672;SDS011;61885;53.560;9.940;2022-09-13T12:01:26;1.70;;;0.73;;
4672;SDS011;61885;53.560;9.940;2022-09-13T12:04:01;1.10;;;0.70;;
4672;SDS011;61885;53.560;9.940;2022-09-13T12:06:40;1.53;;;0.70;;
4672;SDS011;61885;53.560;9.940;2022-09-13T12:09:14;2.80;;;0.63;;
4672;SDS011;61885;53.560;9.940;2022-09-13T12:11:47;3.53;;;0.97;;
4672;SDS011;61885;53.560;9.940;2022-09-13T12:14:21;2.43;;;0.70;;
4672;SDS011;61885;53.560;9.940;2022-09-13T12:16:54;4.00;;;1.20;;
4672;SDS011;61885;53.560;9.940;2022-09-13T12:19:27;2.70;;;0.83;;
4672;SDS011;61885;53.560;9.940;2022-09-13T12:22:05;2.70;;;1.17;;
4672;SDS011;61885;53.560;9.940;2022-09-13T12:24:37;2.73;;;0.70;;
4672;SDS011;61885;53.560;9.940;2022-09-13T12:27:11;1.67;;;0.80;;
4672;SDS011;61885;53.560;9.940;2022-09-13T12:29:50;3.40;;;1.00;;
4672;SDS011;61885;53.560;9.940;2022-09-13T12:32:22;1.37;;;0.60;;
4672;SDS011;61885;53.560;9.940;2022-09-13T12:34:53;5.07;;;1.20;;
4672;SDS011;61885;53.560;9.940;2022-09-13T12:37:37;3.60;;;1.43;;
4672;SDS011;61885;53.560;9.940;2022-09-13T12:43:17;3.60;;;0.80;;
4672;SDS011;61885;53.560;9.940;2022-09-13T12:49:08;1.30;;;0.80;;
4672;SDS011;61885;53.560;9.940;2022-09-13T12:51:54;1.97;;;0.70;;
4672;SDS011;61885;53.560;9.940;2022-09-13T12:54:40;1.17;;;0.67;;
4672;SDS011;61885;53.560;9.940;2022-09-13T12:57:23;2.70;;;0.80;;
4672;SDS011;61885;53.560;9.940;2022-09-13T13:00:11;1.00;;;0.50;;
4672;SDS011;61885;53.560;9.940;2022-09-13T13:02:55;3.70;;;0.80;;
4672;SDS011;61885;53.560;9.940;2022-09-13T13:05:37;1.73;;;1.00;;
4672;SDS011;61885;53.560;9.940;2022-09-13T13:08:19;1.80;;;1.10;;
4672;SDS011;61885;53.560;9.940;2022-09-13T13:11:05;3.03;;;0.80;;
4672;SDS011;61885;53.560;9.940;2022-09-13T13:13:38;1.10;;;0.70;;
4672;SDS011;61885;53.560;9.940;2022-09-13T13:16:22;3.67;;;1.20;;
4672;SDS011;61885;53.560;9.940;2022-09-13T13:18:54;1.20;;;0.70;;
4672;SDS011;61885;53.560;9.940;2022-09-13T13:21:29;2.40;;;1.07;;
4672;SDS011;61885;53.560;9.940;2022-09-13T13:27:03;1.67;;;0.70;;
4672;SDS011;61885;53.560;9.940;2022-09-13T13:33:27;4.90;;;1.23;;
4672;SDS011;61885;53.560;9.940;2022-09-13T13:35:57;1.67;;;0.87;;
4672;SDS011;61885;53.560;9.940;2022-09-13T13:38:50;1.10;;;0.70;;
4672;SDS011;61885;53.560;9.940;2022-09-13T13:41:35;2.70;;;0.70;;
4672;SDS011;61885;53.560;9.940;2022-09-13T13:50:14;2.13;;;0.97;;
4672;SDS011;61885;53.560;9.940;2022-09-13T13:52:53;2.70;;;1.03;;
4672;SDS011;61885;53.560;9.940;2022-09-13T13:55:43;1.83;;;0.90;;
4672;SDS011;61885;53.560;9.940;2022-09-13T13:58:25;7.70;;;1.83;;
4672;SDS011;61885;53.560;9.940;2022-09-13T14:00:59;0.90;;;0.50;;
4672;SDS011;61885;53.560;9.940;2022-09-13T14:03:55;1.00;;;0.50;;
4672;SDS011;61885;53.560;9.940;2022-09-13T14:06:41;3.87;;;0.67;;
4672;SDS011;61885;53.560;9.940;2022-09-13T14:09:22;2.10;;;0.70;;
4672;SDS011;61885;53.560;9.940;2022-09-13T14:12:09;0.90;;;0.50;;
4672;SDS011;61885;53.560;9.940;2022-09-13T14:14:52;9.43;;;1.70;;
4672;SDS011;61885;53.560;9.940;2022-09-13T14:17:48;1.57;;;0.60;;
4672;SDS011;61885;53.560;9.940;2022-09-13T14:23:29;1.70;;;0.77;;
4672;SDS011;61885;53.560;9.940;2022-09-13T14:26:00;1.93;;;0.70;;
4672;SDS011;61885;53.560;9.940;2022-09-13T14:28:30;1.93;;;0.70;;
4672;SDS011;61885;53.560;9.940;2022-09-13T14:31:00;2.60;;;1.27;;
4672;SDS011;61885;53.560;9.940;2022-09-13T14:33:31;2.97;;;0.97;;
4672;SDS011;61885;53.560;9.940;2022-09-13T14:36:03;5.10;;;1.03;;
4672;SDS011;61885;53.560;9.940;2022-09-13T14:38:37;5.00;;;1.00;;
4672;SDS011;61885;53.560;9.940;2022-09-13T14:41:17;2.73;;;1.03;;
4672;SDS011;61885;53.560;9.940;2022-09-13T14:43:48;5.13;;;0.97;;
4672;SDS011;61885;53.560;9.940;2022-09-13T14:46:20;1.77;;;0.70;;
4672;SDS011;61885;53.560;9.940;2022-09-13T14:48:53;2.33;;;0.70;;
4672;SDS011;61885;53.560;9.940;2022-09-13T14:51:26;2.10;;;0.67;;
4672;SDS011;61885;53.560;9.940;2022-09-13T14:54:02;2.80;;;0.97;;
4672;SDS011;61885;53.560;9.940;2022-09-13T14:56:39;1.20;;;0.57;;
4672;SDS011;61885;53.560;9.940;2022-09-13T14:59:12;1.67;;;0.67;;
4672;SDS011;61885;53.560;9.940;2022-09-13T15:01:48;2.50;;;1.10;;
4672;SDS011;61885;53.560;9.940;2022-09-13T15:04:18;1.80;;;1.23;;
4672;SDS011;61885;53.560;9.940;2022-09-13T15:07:04;1.53;;;0.93;;
4672;SDS011;61885;53.560;9.940;2022-09-13T15:09:38;0.90;;;0.60;;
4672;SDS011;61885;53.560;9.940;2022-09-13T15:12:17;3.40;;;0.80;;
4672;SDS011;61885;53.560;9.940;2022-09-13T15:18:00;4.10;;;1.17;;
4672;SDS011;61885;53.560;9.940;2022-09-13T15:20:46;8.07;;;1.40;;
4672;SDS011;61885;53.560;9.940;2022-09-13T15:23:19;2.03;;;0.87;;
4672;SDS011;61885;53.560;9.940;2022-09-13T15:25:54;4.03;;;0.70;;
4672;SDS011;61885;53.560;9.940;2022-09-13T15:28:25;1.77;;;0.97;;
4672;SDS011;61885;53.560;9.940;2022-09-13T15:30:56;4.20;;;1.10;;
4672;SDS011;61885;53.560;9.940;2022-09-13T15:33:30;1.70;;;0.80;;
4672;SDS011;61885;53.560;9.940;2022-09-13T15:36:14;2.50;;;0.70;;
4672;SDS011;61885;53.560;9.940;2022-09-13T15:39:00;3.27;;;0.90;;
4672;SDS011;61885;53.560;9.940;2022-09-13T15:41:34;3.20;;;1.63;;
4672;SDS011;61885;53.560;9.940;2022-09-13T15:44:05;3.30;;;2.20;;
4672;SDS011;61885;53.560;9.940;2022-09-13T15:46:36;5.47;;;1.93;;
4672;SDS011;61885;53.560;9.940;2022-09-13T15:49:13;7.47;;;2.87;;
4672;SDS011;61885;53.560;9.940;2022-09-13T15:51:47;3.50;;;0.77;;
4672;SDS011;61885;53.560;9.940;2022-09-13T15:54:22;5.07;;;2.70;;
4672;SDS011;61885;53.560;9.940;2022-09-13T15:57:03;2.60;;;1.00;;
4672;SDS011;61885;53.560;9.940;2022-09-13T15:59:35;6.07;;;1.80;;
4672;SDS011;61885;53.560;9.940;2022-09-13T16:02:16;5.13;;;1.10;;
4672;SDS011;61885;53.560;9.940;2022-09-13T16:04:48;1.70;;;1.20;;
4672;SDS011;61885;53.560;9.940;2022-09-13T16:07:21;5.53;;;0.90;;
4672;SDS011;61885;53.560;9.940;2022-09-13T16:09:52;2.20;;;0.70;;
4672;SDS011;61885;53.560;9.940;2022-09-13T16:12:24;1.43;;;0.60;;
4672;SDS011;61885;53.560;9.940;2022-09-13T16:14:54;2.40;;;0.87;;
4672;SDS011;61885;53.560;9.940;2022-09-13T16:17:24;1.97;;;0.80;;
4672;SDS011;61885;53.560;9.940;2022-09-13T16:19:55;1.30;;;0.70;;
4672;SDS011;61885;53.560;9.940;2022-09-13T16:22:24;1.40;;;0.70;;
4672;SDS011;61885;53.560;9.940;2022-09-13T16:24:54;4.00;;;0.87;;
4672;SDS011;61885;53.560;9.940;2022-09-13T16:27:26;8.97;;;1.00;;
4672;SDS011;61885;53.560;9.940;2022-09-13T16:29:57;1.73;;;0.80;;